Time;durP1;ratioP1;P1;durP2;ratioP2;P2;SDS_P1;SDS_P2;PMS_P1;PMS_P2;Temp;Humidity;BMP_temperature;BMP_pressure;BME280_temperature;BME280_humidity;BME280_pressure;Samples;Min_cycle;Max_cycle;Signal;HPM_P1;HPM_P2
2021/08/24 00:00:14;;;;;;;9.10;6.23;;;;;;;18.44;69.35;97315.22;5069426;28;20511;-69
2021/08/24 00:02:39;;;;;;;6.20;5.70;;;;;;;18.48;69.25;97315.63;5071126;28;20171;-69
2021/08/24 00:05:07;;;;;;;6.77;6.17;;;;;;;18.37;69.49;97314.38;5072212;28;20472;-69
2021/08/24 00:07:33;;;;;;;6.50;5.90;;;;;;;18.43;69.24;97318.88;5070093;28;20181;-69
2021/08/24 00:09:58;;;;;;;7.03;6.30;;;;;;;18.56;68.99;97315.47;5071113;28;20417;-68
2021/08/24 00:12:24;;;;;;;7.10;6.30;;;;;;;18.53;69.09;97319.31;5071866;28;20676;-68
2021/08/24 00:14:49;;;;;;;6.60;6.00;;;;;;;18.57;68.99;97307.28;5071426;28;20182;-68
2021/08/24 00:20:38;;;;;;;7.30;6.20;;;;;;;18.60;68.82;97313.22;5057533;28;20216;-68
2021/08/24 00:23:07;;;;;;;6.83;6.20;;;;;;;18.45;68.92;97313.41;5071458;28;20447;-69
2021/08/24 00:25:33;;;;;;;6.30;5.77;;;;;;;18.50;69.20;97314.44;5070011;28;20444;-68
2021/08/24 00:27:59;;;;;;;6.90;6.03;;;;;;;18.55;68.86;97314.63;5055364;28;20517;-68
2021/08/24 00:30:24;;;;;;;9.13;6.57;;;;;;;18.48;69.05;97300.53;5067303;28;20872;-68
2021/08/24 00:32:50;;;;;;;8.27;6.63;;;;;;;18.51;69.04;97308.09;5071556;28;20182;-69
2021/08/24 00:35:15;;;;;;;6.90;6.13;;;;;;;18.51;69.29;97301.97;5070489;28;20178;-68
2021/08/24 00:37:41;;;;;;;7.03;6.43;;;;;;;18.54;69.27;97299.72;5054747;28;20190;-68
2021/08/24 00:40:08;;;;;;;8.87;6.77;;;;;;;18.54;69.09;97309.53;5071160;28;20174;-69
2021/08/24 00:42:35;;;;;;;8.90;6.60;;;;;;;18.56;69.03;97304.84;5071147;28;20182;-68
2021/08/24 00:45:00;;;;;;;7.77;6.90;;;;;;;18.53;69.17;97307.91;5060671;28;20461;-69
2021/08/24 00:47:27;;;;;;;8.67;6.90;;;;;;;18.39;69.79;97296.44;5070728;28;20806;-68
2021/08/24 00:49:56;;;;;;;7.93;7.17;;;;;;;18.40;69.77;97303.34;5071402;28;20448;-69
2021/08/24 00:52:22;;;;;;;9.03;8.13;;;;;;;18.31;70.36;97302.75;5069933;28;20189;-69
2021/08/24 00:54:48;;;;;;;7.60;6.80;;;;;;;18.36;69.89;97294.19;5071225;28;20439;-68
2021/08/24 00:57:20;;;;;;;10.50;7.20;;;;;;;18.30;70.28;97302.94;5061711;28;20195;-69
2021/08/24 00:59:47;;;;;;;7.90;7.20;;;;;;;18.25;70.33;97295.56;5069739;28;20452;-68
2021/08/24 01:02:15;;;;;;;7.90;7.10;;;;;;;18.25;70.42;97296.41;5065666;28;20425;-69
2021/08/24 01:04:40;;;;;;;7.50;6.77;;;;;;;18.11;70.94;97303.47;5069092;28;20986;-68
2021/08/24 01:07:17;;;;;;;11.70;7.53;;;;;;;18.12;70.88;97301.66;5070366;28;20421;-68
2021/08/24 01:09:47;;;;;;;8.27;7.40;;;;;;;17.73;72.27;97303.06;5069710;28;20251;-68
2021/08/24 01:12:16;;;;;;;9.90;7.20;;;;;;;17.94;71.64;97295.00;5069520;28;20464;-68
2021/08/24 01:15:16;;;;;;;7.80;6.33;;;;;;;17.66;72.26;97298.53;5068719;28;20834;-68
2021/08/24 01:18:01;;;;;;;10.60;7.03;;;;;;;17.54;73.45;97304.59;5053207;28;20440;-68
2021/08/24 01:20:32;;;;;;;9.60;7.70;;;;;;;17.60;72.84;97294.03;5060219;28;20966;-70
2021/08/24 01:23:06;;;;;;;8.63;7.63;;;;;;;17.35;73.34;97307.75;5070304;28;20420;-69
2021/08/24 01:25:36;;;;;;;8.70;7.37;;;;;;;17.33;73.99;97309.75;5070577;28;20958;-69
2021/08/24 01:28:14;;;;;;;10.20;6.73;;;;;;;17.25;73.99;97309.91;5071692;28;20451;-68
2021/08/24 01:31:16;;;;;;;8.90;6.80;;;;;;;17.55;72.70;97301.75;5068473;28;20435;-69
2021/08/24 01:34:00;;;;;;;8.93;7.00;;;;;;;17.51;72.27;97316.41;5071241;28;20420;-69
2021/08/24 01:36:39;;;;;;;7.30;6.27;;;;;;;17.28;72.51;97308.69;5070695;28;20758;-69
2021/08/24 01:39:08;;;;;;;6.57;5.97;;;;;;;17.49;71.78;97303.34;5069066;28;20463;-69
2021/08/24 01:41:55;;;;;;;12.57;6.10;;;;;;;17.50;71.09;97297.03;5070588;28;20431;-70
2021/08/24 01:44:23;;;;;;;6.47;5.70;;;;;;;17.04;71.90;97303.63;5063504;28;20549;-69
2021/08/24 01:47:04;;;;;;;10.00;6.53;;;;;;;17.28;70.96;97306.84;5058961;28;20714;-68
2021/08/24 01:49:36;;;;;;;6.50;5.50;;;;;;;17.43;70.24;97305.94;5069904;28;20444;-69
2021/08/24 01:52:07;;;;;;;6.77;5.50;;;;;;;17.28;70.25;97301.56;5070196;28;20435;-68
2021/08/24 01:54:38;;;;;;;5.50;5.00;;;;;;;17.42;69.64;97302.50;5055462;28;20788;-69
2021/08/24 01:57:06;;;;;;;5.97;5.37;;;;;;;17.15;70.03;97304.09;5088748;28;20416;-70
2021/08/24 01:59:40;;;;;;;8.33;5.77;;;;;;;17.35;69.59;97302.44;5076555;28;20472;-69
2021/08/24 02:02:09;;;;;;;7.07;5.40;;;;;;;17.26;69.57;97298.31;5077144;28;20480;-70
2021/08/24 02:04:49;;;;;;;6.70;5.07;;;;;;;17.29;69.55;97305.84;5095006;28;20456;-69
2021/08/24 02:07:16;;;;;;;5.57;4.97;;;;;;;16.72;71.69;97304.94;5094504;28;20448;-70
2021/08/24 02:09:46;;;;;;;5.87;5.07;;;;;;;16.80;70.29;97304.81;5076887;28;20429;-69
2021/08/24 02:12:13;;;;;;;5.50;5.00;;;;;;;16.50;71.37;97310.22;5073780;28;20439;-68
2021/08/24 02:14:40;;;;;;;5.60;4.70;;;;;;;16.74;70.59;97300.28;5064476;28;20413;-69
2021/08/24 02:17:07;;;;;;;10.60;5.40;;;;;;;16.81;70.23;97303.81;5072177;28;20460;-69
2021/08/24 02:19:46;;;;;;;6.53;4.67;;;;;;;16.95;69.52;97302.13;5065615;28;20451;-69
2021/08/24 02:22:16;;;;;;;7.23;4.37;;;;;;;17.07;69.00;97304.25;5072275;28;20443;-69
2021/08/24 02:24:48;;;;;;;8.57;4.60;;;;;;;17.24;68.54;97307.44;5072244;28;20456;-68
2021/08/24 02:27:18;;;;;;;7.90;4.20;;;;;;;17.27;68.04;97305.22;5072812;28;20428;-67
2021/08/24 02:29:44;;;;;;;8.57;5.10;;;;;;;17.29;68.02;97313.78;5072502;28;20474;-68
2021/08/24 02:32:14;;;;;;;4.80;4.30;;;;;;;17.31;67.72;97303.81;5070433;28;20507;-69
2021/08/24 02:34:46;;;;;;;8.13;4.57;;;;;;;17.31;67.38;97306.47;5062960;28;20417;-69
2021/08/24 02:37:18;;;;;;;4.70;4.07;;;;;;;17.01;67.66;97309.28;5067786;28;20436;-69
2021/08/24 02:39:54;;;;;;;11.33;4.90;;;;;;;17.17;67.60;97302.09;5071688;28;20451;-68
2021/08/24 02:42:45;;;;;;;4.90;4.30;;;;;;;17.15;67.22;97304.94;5072126;28;20873;-68
2021/08/24 02:45:24;;;;;;;5.60;4.60;;;;;;;17.24;66.92;97307.44;5071197;28;20556;-68
2021/08/24 02:47:50;;;;;;;13.47;6.27;;;;;;;17.20;66.90;97304.38;5072191;28;20420;-69
2021/08/24 02:50:15;;;;;;;26.53;9.97;;;;;;;16.64;68.33;97297.13;5039092;28;20777;-70
2021/08/24 02:52:41;;;;;;;10.40;5.30;;;;;;;16.65;68.51;97307.50;5079229;28;20186;-69
2021/08/24 02:55:08;;;;;;;14.30;5.53;;;;;;;16.54;68.91;97300.09;5073853;28;20181;-67
2021/08/24 02:57:34;;;;;;;12.83;5.33;;;;;;;16.55;68.43;97294.63;5072534;28;20167;-69
2021/08/24 02:59:59;;;;;;;8.20;4.70;;;;;;;16.53;68.53;97303.72;5053254;28;20923;-69
2021/08/24 03:02:25;;;;;;;10.83;4.17;;;;;;;16.35;69.27;97291.75;5072463;28;20276;-68
2021/08/24 03:04:51;;;;;;;6.40;4.30;;;;;;;16.32;69.52;97296.63;5072778;28;20289;-67
2021/08/24 03:07:19;;;;;;;5.00;4.47;;;;;;;16.27;69.66;97297.16;5073455;28;20189;-70
2021/08/24 03:09:46;;;;;;;6.10;4.50;;;;;;;16.27;69.75;97299.78;5071685;28;20203;-70
2021/08/24 03:12:22;;;;;;;6.13;5.07;;;;;;;16.06;70.20;97304.03;5055755;28;20429;-69
2021/08/24 03:14:49;;;;;;;5.10;4.60;;;;;;;16.04;70.24;97306.03;5057438;28;20534;-68
2021/08/24 03:17:26;;;;;;;5.93;4.97;;;;;;;16.03;70.24;97296.47;5072154;28;20482;-68
2021/08/24 03:19:54;;;;;;;14.60;5.33;;;;;;;16.03;69.99;97298.31;5047102;28;20456;-71
2021/08/24 03:22:20;;;;;;;14.90;5.60;;;;;;;16.01;69.82;97301.13;5047124;28;20433;-68
2021/08/24 03:24:46;;;;;;;8.00;5.10;;;;;;;16.04;69.60;97299.94;5052046;28;20461;-68
2021/08/24 03:27:12;;;;;;;13.40;6.00;;;;;;;16.18;69.18;97295.63;5051226;28;20422;-69
2021/08/24 03:29:38;;;;;;;6.90;4.77;;;;;;;16.20;68.76;97294.44;5052617;28;20978;-69
2021/08/24 03:32:05;;;;;;;10.27;4.63;;;;;;;16.13;68.96;97293.53;5057836;28;20175;-71
2021/08/24 03:34:31;;;;;;;10.97;5.23;;;;;;;16.17;68.88;97304.56;5054129;28;20424;-69
2021/08/24 03:36:57;;;;;;;5.23;4.60;;;;;;;16.20;68.43;97290.97;5056773;28;20425;-68
2021/08/24 03:39:22;;;;;;;5.13;4.67;;;;;;;16.03;69.07;97304.41;5052123;28;20198;-68
2021/08/24 03:41:48;;;;;;;6.83;5.40;;;;;;;16.14;68.71;97295.19;5046170;28;20206;-69
2021/08/24 03:44:14;;;;;;;5.77;4.87;;;;;;;16.17;68.59;97307.19;5049368;28;20207;-70
2021/08/24 03:46:39;;;;;;;7.90;4.47;;;;;;;16.18;68.54;97303.56;5052246;28;21012;-69
2021/08/24 03:49:05;;;;;;;6.20;5.50;;;;;;;16.14;68.51;97297.84;5060101;28;20230;-68
2021/08/24 03:51:31;;;;;;;8.53;5.97;;;;;;;15.62;70.83;97307.50;5044946;28;20182;-68
2021/08/24 03:53:56;;;;;;;7.57;5.83;;;;;;;15.66;70.92;97303.50;5050843;28;20516;-68
2021/08/24 03:56:22;;;;;;;6.00;5.33;;;;;;;15.88;69.98;97306.25;5052093;28;20253;-69
2021/08/24 03:58:47;;;;;;;7.40;5.83;;;;;;;15.95;69.26;97309.81;5052198;28;20202;-68
2021/08/24 04:01:15;;;;;;;7.83;5.57;;;;;;;15.94;69.24;97316.09;5060086;28;20246;-69
2021/08/24 04:03:42;;;;;;;5.90;5.30;;;;;;;15.97;69.21;97321.81;5050907;28;20691;-70
2021/08/24 04:06:08;;;;;;;6.03;5.50;;;;;;;15.88;69.30;97317.63;5051672;28;20430;-68
2021/08/24 04:08:33;;;;;;;7.93;5.63;;;;;;;15.72;70.13;97326.56;5050716;28;20448;-71
2021/08/24 04:11:02;;;;;;;7.87;6.50;;;;;;;15.75;69.74;97328.81;5051469;28;20429;-70
2021/08/24 04:13:28;;;;;;;10.77;5.87;;;;;;;15.73;69.76;97330.00;5049643;28;20182;-69
2021/08/24 04:15:53;;;;;;;7.40;5.40;;;;;;;15.81;69.48;97336.00;5054360;28;20422;-69
2021/08/24 04:18:19;;;;;;;6.03;5.50;;;;;;;15.73;69.81;97333.47;5048968;28;20637;-68
2021/08/24 04:20:45;;;;;;;10.10;6.40;;;;;;;15.71;69.73;97334.63;5042456;28;20587;-69
2021/08/24 04:23:19;;;;;;;6.50;5.80;;;;;;;15.65;69.82;97338.81;5046960;28;20248;-68
2021/08/24 04:25:45;;;;;;;6.30;5.70;;;;;;;15.58;70.03;97335.28;5051687;28;20273;-70
2021/08/24 04:28:10;;;;;;;13.60;5.93;;;;;;;15.58;69.99;97337.94;5059074;28;20494;-69
2021/08/24 04:30:37;;;;;;;9.77;5.60;;;;;;;15.65;69.84;97329.09;5062490;28;20872;-69
2021/08/24 04:33:03;;;;;;;8.20;5.90;;;;;;;15.31;71.15;97330.41;5054219;28;20186;-70
2021/08/24 04:35:28;;;;;;;9.23;5.80;;;;;;;15.40;70.90;97330.34;5058350;28;20944;-69
2021/08/24 04:37:54;;;;;;;7.57;6.77;;;;;;;15.39;70.81;97333.97;5051167;28;20290;-69
2021/08/24 04:40:19;;;;;;;7.07;6.37;;;;;;;15.29;71.21;97331.59;5050096;28;20178;-70
2021/08/24 04:42:46;;;;;;;8.80;6.70;;;;;;;15.23;71.33;97329.69;5057121;28;20525;-70
2021/08/24 04:45:12;;;;;;;8.80;6.10;;;;;;;15.35;71.41;97333.53;5059657;28;20202;-68
2021/08/24 04:47:38;;;;;;;8.47;5.97;;;;;;;15.48;70.62;97339.00;5049560;28;20524;-68
2021/08/24 04:50:04;;;;;;;9.10;6.10;;;;;;;15.54;70.32;97334.00;5051963;28;20499;-69
2021/08/24 04:52:30;;;;;;;14.33;6.50;;;;;;;15.39;70.74;97336.63;5051442;28;20183;-69
2021/08/24 04:54:55;;;;;;;17.73;6.47;;;;;;;15.43;71.01;97341.38;5050596;28;20429;-67
2021/08/24 04:57:21;;;;;;;8.00;6.87;;;;;;;15.38;71.22;97342.91;5061686;28;20190;-68
2021/08/24 04:59:46;;;;;;;7.73;6.60;;;;;;;15.48;70.85;97335.53;5062959;28;20240;-68
2021/08/24 05:02:12;;;;;;;8.00;7.20;;;;;;;15.51;70.87;97343.91;5053373;28;20669;-69
2021/08/24 05:04:38;;;;;;;7.10;6.40;;;;;;;15.61;70.23;97345.50;5050605;28;20199;-69
2021/08/24 05:07:03;;;;;;;6.90;6.20;;;;;;;15.67;70.16;97352.69;5050224;28;20175;-70
2021/08/24 05:09:29;;;;;;;6.90;6.23;;;;;;;15.73;69.94;97351.13;5049850;28;20199;-69
2021/08/24 05:11:56;;;;;;;10.90;6.40;;;;;;;15.65;70.37;97347.59;5058215;28;20186;-69
2021/08/24 05:14:22;;;;;;;24.80;13.13;;;;;;;15.71;70.11;97353.97;5059175;28;20421;-69
2021/08/24 05:16:55;;;;;;;19.20;10.40;;;;;;;15.69;70.20;97342.75;5058920;28;20421;-69
2021/08/24 05:19:21;;;;;;;20.60;11.73;;;;;;;15.45;71.05;97344.66;5042363;28;20523;-68
2021/08/24 05:21:46;;;;;;;9.70;6.80;;;;;;;15.51;70.37;97348.38;5039284;28;20441;-67
2021/08/24 05:24:12;;;;;;;10.30;7.20;;;;;;;15.44;70.87;97356.22;5032013;28;20260;-70
2021/08/24 05:26:38;;;;;;;8.20;7.40;;;;;;;15.52;70.60;97356.13;5049357;28;20661;-70
2021/08/24 05:29:03;;;;;;;7.90;7.07;;;;;;;15.51;70.34;97354.47;5049328;28;20195;-68
2021/08/24 05:31:29;;;;;;;9.47;7.57;;;;;;;15.61;70.11;97356.88;5035452;28;20781;-68
2021/08/24 05:33:55;;;;;;;11.63;6.60;;;;;;;15.27;71.73;97352.06;5069246;28;20181;-68
2021/08/24 05:36:20;;;;;;;9.23;7.50;;;;;;;15.20;71.67;97358.06;5071089;28;20675;-68
2021/08/24 05:38:46;;;;;;;9.20;7.83;;;;;;;15.02;72.41;97360.19;5071096;28;20212;-69
2021/08/24 05:41:12;;;;;;;7.17;6.47;;;;;;;15.12;72.47;97355.47;5070785;28;20255;-68
2021/08/24 05:43:37;;;;;;;7.30;6.60;;;;;;;15.15;72.41;97349.84;5070123;28;20189;-69
2021/08/24 05:46:06;;;;;;;15.90;7.77;;;;;;;15.25;71.84;97354.09;5067870;28;20167;-69
2021/08/24 05:48:32;;;;;;;8.60;6.60;;;;;;;15.47;71.00;97347.94;5054313;28;20220;-68
2021/08/24 05:50:58;;;;;;;11.50;7.53;;;;;;;15.40;71.06;97354.13;5070697;28;20416;-68
2021/08/24 05:53:24;;;;;;;14.43;7.33;;;;;;;15.64;70.69;97353.88;5070055;28;20479;-69
2021/08/24 05:55:50;;;;;;;8.67;6.77;;;;;;;15.83;69.36;97359.59;5070747;28;20563;-69
2021/08/24 05:58:16;;;;;;;10.37;7.40;;;;;;;15.78;70.34;97354.88;5070354;28;20543;-69
2021/08/24 06:00:42;;;;;;;7.23;6.50;;;;;;;16.16;69.34;97355.78;5044624;28;20259;-68
2021/08/24 06:03:08;;;;;;;9.27;7.60;;;;;;;15.61;69.86;97354.22;5065275;28;20175;-69
2021/08/24 06:05:40;;;;;;;9.73;6.67;;;;;;;15.66;70.17;97357.16;5068769;28;20428;-69
2021/08/24 06:08:07;;;;;;;14.90;6.97;;;;;;;16.06;69.04;97370.13;5045888;28;20433;-70
2021/08/24 06:10:37;;;;;;;7.80;6.57;;;;;;;15.96;69.48;97361.66;5070054;28;20413;-69
2021/08/24 06:13:03;;;;;;;8.07;6.87;;;;;;;15.68;69.67;97372.00;5067772;28;20405;-70
2021/08/24 06:15:29;;;;;;;11.53;7.90;;;;;;;16.04;69.05;97368.69;5068503;28;20484;-67
2021/08/24 06:17:54;;;;;;;9.50;7.30;;;;;;;16.22;68.02;97368.28;5070367;28;20503;-68
2021/08/24 06:20:20;;;;;;;7.40;6.60;;;;;;;15.74;69.45;97364.19;5052684;28;20220;-66
2021/08/24 06:22:46;;;;;;;7.80;6.53;;;;;;;15.66;69.60;97364.25;5069318;28;20257;-69
2021/08/24 06:25:11;;;;;;;9.07;6.60;;;;;;;15.79;70.02;97367.09;5068495;28;20430;-68
2021/08/24 06:27:37;;;;;;;8.87;6.70;;;;;;;16.54;68.48;97353.00;5070023;28;20580;-69
2021/08/24 06:30:03;;;;;;;10.67;7.40;;;;;;;16.62;66.81;97350.25;5070076;28;20221;-68
2021/08/24 06:32:31;;;;;;;12.50;6.37;;;;;;;16.33;67.64;97351.13;5054835;28;20183;-70
2021/08/24 06:34:57;;;;;;;9.60;7.13;;;;;;;16.40;67.42;97352.84;5069489;28;20837;-68
2021/08/24 06:37:22;;;;;;;7.73;6.50;;;;;;;16.39;67.48;97356.47;5070128;28;20484;-68
2021/08/24 06:39:48;;;;;;;11.57;6.97;;;;;;;15.91;69.29;97358.72;5070335;28;20190;-69
2021/08/24 06:42:13;;;;;;;11.50;6.57;;;;;;;16.10;69.59;97352.91;5069052;28;20257;-70
2021/08/24 06:44:39;;;;;;;8.97;6.77;;;;;;;16.43;68.98;97351.66;5067276;28;20209;-69
2021/08/24 06:47:05;;;;;;;8.33;7.00;;;;;;;16.06;69.14;97362.19;5057953;28;20253;-68
2021/08/24 06:49:30;;;;;;;9.23;7.30;;;;;;;16.09;69.61;97356.53;5072625;28;20213;-69
2021/08/24 06:51:57;;;;;;;10.40;6.60;;;;;;;16.52;68.34;97353.19;5073823;28;20179;-68
2021/08/24 06:54:23;;;;;;;8.40;6.33;;;;;;;15.95;69.35;97362.66;5071582;28;20178;-68
2021/08/24 06:56:49;;;;;;;11.10;6.87;;;;;;;16.67;67.96;97353.13;5073489;28;20741;-68
2021/08/24 06:59:16;;;;;;;10.83;7.03;;;;;;;16.12;69.98;97355.34;5072617;28;20281;-68
2021/08/24 07:01:41;;;;;;;9.57;6.50;;;;;;;16.80;67.15;97355.09;5052547;28;20543;-69
2021/08/24 07:04:07;;;;;;;8.70;6.70;;;;;;;17.22;66.19;97355.31;5068192;28;20453;-69
2021/08/24 07:06:33;;;;;;;6.97;6.27;;;;;;;17.10;66.83;97352.34;5072133;28;20179;-69
2021/08/24 07:08:58;;;;;;;9.80;6.77;;;;;;;16.66;68.27;97359.44;5073642;28;20237;-68
2021/08/24 07:11:26;;;;;;;8.03;5.97;;;;;;;16.48;68.14;97364.34;5073469;28;20175;-69
2021/08/24 07:13:57;;;;;;;10.03;7.07;;;;;;;16.51;68.25;97353.34;5072846;28;20171;-69
2021/08/24 07:16:22;;;;;;;8.33;6.60;;;;;;;16.14;70.44;97363.94;5073229;28;20477;-70
2021/08/24 07:18:51;;;;;;;7.30;6.57;;;;;;;16.87;67.17;97355.97;5065604;28;20437;-70
2021/08/24 07:21:17;;;;;;;8.50;6.00;;;;;;;17.19;66.52;97353.88;5071089;28;20448;-67
2021/08/24 07:23:44;;;;;;;7.37;6.60;;;;;;;16.81;67.71;97358.56;5072452;28;20821;-67
2021/08/24 07:26:10;;;;;;;9.90;6.60;;;;;;;16.65;68.13;97355.13;5073412;28;20504;-67
2021/08/24 07:28:35;;;;;;;6.67;6.00;;;;;;;17.11;66.88;97356.63;5064118;28;20451;-67
2021/08/24 07:31:01;;;;;;;9.83;6.80;;;;;;;16.22;69.47;97357.72;5059923;28;20418;-68
2021/08/24 07:33:27;;;;;;;8.47;6.63;;;;;;;16.17;69.74;97358.28;5072555;28;20204;-69
2021/08/24 07:35:52;;;;;;;9.03;6.63;;;;;;;16.05;71.06;97349.97;5058873;28;20206;-71
2021/08/24 07:38:18;;;;;;;10.00;7.33;;;;;;;16.15;70.45;97351.50;5068790;28;20219;-69
2021/08/24 07:40:44;;;;;;;9.07;6.83;;;;;;;16.18;69.77;97353.78;5071963;28;20649;-68
2021/08/24 07:43:11;;;;;;;7.80;6.93;;;;;;;15.81;71.85;97351.88;5073107;28;20425;-67
2021/08/24 07:45:37;;;;;;;7.10;6.40;;;;;;;16.59;68.96;97350.63;5071936;28;20421;-68
2021/08/24 07:48:02;;;;;;;7.10;6.40;;;;;;;16.39;69.92;97359.13;5072949;28;20497;-69
2021/08/24 07:50:28;;;;;;;11.10;6.60;;;;;;;16.67;69.10;97345.19;5073022;28;20171;-68
2021/08/24 07:52:53;;;;;;;10.10;5.80;;;;;;;17.14;66.75;97347.47;5065026;28;20583;-69
2021/08/24 07:55:19;;;;;;;11.17;5.63;;;;;;;17.45;65.68;97347.13;5066684;28;20179;-69
2021/08/24 07:57:45;;;;;;;8.00;4.97;;;;;;;16.63;66.16;97345.75;5047066;28;20197;-68
2021/08/24 08:00:11;;;;;;;7.20;4.70;;;;;;;17.37;63.74;97357.06;5072068;28;20420;-69
2021/08/24 08:02:36;;;;;;;4.90;4.40;;;;;;;17.44;62.66;97352.63;5058270;28;20186;-69
2021/08/24 08:05:02;;;;;;;6.60;4.00;;;;;;;17.54;61.88;97353.09;5071422;28;20199;-69
2021/08/24 08:07:28;;;;;;;7.97;5.20;;;;;;;17.17;62.75;97355.06;5072058;28;20250;-69
2021/08/24 08:09:53;;;;;;;9.60;4.37;;;;;;;17.79;61.10;97358.78;5070863;28;20451;-68
2021/08/24 08:12:20;;;;;;;39.73;24.10;;;;;;;18.08;60.37;97359.56;5058168;28;20186;-69
2021/08/24 08:14:46;;;;;;;7.50;4.33;;;;;;;18.18;59.87;97359.19;5059318;28;20171;-68
2021/08/24 08:17:12;;;;;;;7.17;4.30;;;;;;;18.23;59.55;97366.56;5063677;28;20469;-68
2021/08/24 08:19:38;;;;;;;4.40;3.83;;;;;;;17.89;61.80;97371.69;5062555;28;20472;-70
2021/08/24 08:22:05;;;;;;;9.90;4.90;;;;;;;18.10;61.04;97370.78;5071479;28;20174;-69
2021/08/24 08:24:31;;;;;;;4.40;3.87;;;;;;;18.17;60.23;97368.16;5069801;28;20801;-67
2021/08/24 08:26:57;;;;;;;6.30;4.40;;;;;;;18.17;60.38;97370.00;5071781;28;20432;-68
2021/08/24 08:29:22;;;;;;;5.87;4.10;;;;;;;17.22;61.96;97379.16;5062210;28;20985;-68
2021/08/24 08:31:48;;;;;;;8.50;4.50;;;;;;;18.00;60.24;97385.44;5056785;28;20712;-68
2021/08/24 08:34:14;;;;;;;4.27;3.43;;;;;;;17.99;59.73;97378.50;5053677;28;20638;-69
2021/08/24 08:36:40;;;;;;;3.67;3.37;;;;;;;18.38;59.05;97372.56;5071376;28;20552;-71
2021/08/24 08:39:06;;;;;;;6.50;4.27;;;;;;;18.73;57.96;97371.66;5071053;28;20445;-69
2021/08/24 08:41:47;;;;;;;12.33;3.60;;;;;;;18.67;57.77;97362.66;5071395;28;20175;-68
2021/08/24 08:44:38;;;;;;;4.23;3.80;;;;;;;18.86;57.75;97366.38;5062333;28;20546;-68
2021/08/24 08:47:38;;;;;;;4.73;4.27;;;;;;;17.68;59.71;97375.22;5024279;28;20434;-68
2021/08/24 08:50:10;;;;;;;4.23;3.80;;;;;;;18.14;58.95;97371.25;5047063;28;20503;-69
2021/08/24 08:52:40;;;;;;;4.60;4.10;;;;;;;18.47;59.26;97372.38;5032324;28;20521;-68
2021/08/24 08:55:23;;;;;;;5.87;4.63;;;;;;;19.30;55.92;97366.00;5031275;28;20525;-69
2021/08/24 08:57:59;;;;;;;5.13;3.87;;;;;;;18.66;57.03;97371.63;5010829;28;21028;-69
2021/08/24 09:00:41;;;;;;;8.40;4.60;;;;;;;19.40;56.24;97365.63;5030098;28;20433;-67
2021/08/24 09:03:26;;;;;;;5.10;4.30;;;;;;;19.72;54.67;97369.25;5045786;28;20511;-69
2021/08/24 09:05:53;;;;;;;5.63;3.73;;;;;;;19.57;54.65;97366.00;5020914;28;20431;-69
2021/08/24 09:08:20;;;;;;;8.30;4.17;;;;;;;19.48;55.45;97368.06;5030068;28;20511;-70
2021/08/24 09:10:53;;;;;;;5.17;3.93;;;;;;;19.40;55.62;97369.09;5047669;28;20430;-67
2021/08/24 09:13:30;;;;;;;6.13;3.50;;;;;;;19.31;55.75;97368.50;5015352;28;21042;-67
2021/08/24 09:16:17;;;;;;;7.23;3.83;;;;;;;19.17;56.62;97362.34;5007929;28;20424;-67
2021/08/24 09:18:56;;;;;;;4.90;4.00;;;;;;;19.17;56.59;97366.84;5022974;28;20463;-69
2021/08/24 09:21:29;;;;;;;10.67;4.43;;;;;;;18.68;57.86;97369.59;5046700;28;20494;-67
2021/08/24 09:23:56;;;;;;;4.60;4.20;;;;;;;18.71;57.49;97374.47;5043118;28;20466;-66
2021/08/24 09:26:57;;;;;;;5.10;4.60;;;;;;;18.66;58.04;97366.31;5068350;28;20452;-68
2021/08/24 09:29:26;;;;;;;8.50;4.70;;;;;;;18.72;58.40;97376.13;5068330;28;20460;-69
2021/08/24 09:31:52;;;;;;;5.77;5.17;;;;;;;18.52;58.56;97370.78;5055313;28;20436;-68
2021/08/24 09:34:23;;;;;;;8.17;7.33;;;;;;;18.22;59.23;97365.75;5069800;28;20920;-68
2021/08/24 09:36:49;;;;;;;8.13;4.87;;;;;;;18.51;58.85;97369.13;5070545;28;20417;-69
2021/08/24 09:39:15;;;;;;;6.00;5.40;;;;;;;18.62;58.36;97369.56;5068765;28;20445;-69
2021/08/24 09:41:43;;;;;;;9.67;6.47;;;;;;;18.72;58.99;97367.34;5069549;28;20181;-73
2021/08/24 09:44:25;;;;;;;7.50;4.80;;;;;;;18.83;58.30;97371.28;5069833;28;20209;-68
2021/08/24 09:46:53;;;;;;;5.83;5.23;;;;;;;18.42;59.20;97373.81;5069243;28;20430;-69
2021/08/24 09:49:21;;;;;;;5.93;4.53;;;;;;;18.41;59.25;97369.50;5067086;28;20441;-68
2021/08/24 09:51:55;;;;;;;7.50;4.23;;;;;;;18.75;59.34;97361.66;5065070;28;20440;-68
2021/08/24 09:54:39;;;;;;;7.20;4.93;;;;;;;18.99;58.13;97362.13;5069957;28;20425;-68
2021/08/24 09:57:11;;;;;;;6.63;4.90;;;;;;;19.24;57.35;97362.34;5062647;28;20424;-68
2021/08/24 09:59:45;;;;;;;9.87;5.13;;;;;;;19.64;56.67;97369.50;5071193;28;20512;-67
2021/08/24 10:02:51;;;;;;;10.57;5.10;;;;;;;18.39;58.85;97360.94;5045476;28;20791;-66
2021/08/24 10:05:22;;;;;;;5.70;4.70;;;;;;;19.42;57.41;97356.41;5046074;28;20481;-68
2021/08/24 10:07:53;;;;;;;6.73;4.40;;;;;;;19.89;55.93;97372.31;5047515;28;20472;-68
2021/08/24 10:10:31;;;;;;;6.00;4.20;;;;;;;19.49;56.91;97359.88;5047771;28;20437;-67
2021/08/24 10:12:58;;;;;;;4.87;4.47;;;;;;;19.45;56.60;97363.16;5048326;28;20434;-69
2021/08/24 10:15:38;;;;;;;6.40;4.60;;;;;;;19.31;56.37;97367.66;5047428;28;20531;-67
2021/08/24 10:18:07;;;;;;;4.47;4.07;;;;;;;18.58;59.35;97362.00;5031327;28;20437;-69
2021/08/24 10:20:52;;;;;;;6.07;4.67;;;;;;;18.88;58.37;97359.03;5040943;28;20475;-69
2021/08/24 10:23:24;;;;;;;6.10;4.40;;;;;;;18.58;58.47;97354.03;5033686;28;20457;-70
2021/08/24 10:25:52;;;;;;;4.70;4.30;;;;;;;18.25;60.46;97360.06;5051372;28;20865;-68
2021/08/24 10:28:40;;;;;;;7.77;4.90;;;;;;;19.28;57.37;97357.47;5052248;28;20539;-67
2021/08/24 10:31:40;;;;;;;4.90;4.40;;;;;;;18.94;58.02;97367.22;5022650;28;20418;-69
2021/08/24 10:34:25;;;;;;;6.70;4.97;;;;;;;19.33;56.74;97362.97;5050749;28;20475;-68
2021/08/24 10:36:51;;;;;;;5.90;4.27;;;;;;;19.15;57.23;97368.88;5070946;28;20426;-69
2021/08/24 10:39:22;;;;;;;10.07;4.53;;;;;;;19.82;55.29;97368.00;5073409;28;20543;-68
2021/08/24 10:42:01;;;;;;;9.43;4.60;;;;;;;19.63;56.04;97376.63;5067103;28;20211;-68
2021/08/24 10:44:29;;;;;;;4.80;4.40;;;;;;;19.71;55.80;97378.25;5072262;28;20535;-68
2021/08/24 10:47:00;;;;;;;8.57;4.90;;;;;;;19.37;57.05;97379.31;5074083;28;20425;-67
2021/08/24 10:49:27;;;;;;;28.03;14.67;;;;;;;19.77;55.77;97377.44;5065641;28;20451;-69
2021/08/24 10:52:30;;;;;;;4.00;3.70;;;;;;;18.91;58.54;97381.69;5074177;28;20424;-68
2021/08/24 10:55:01;;;;;;;5.50;4.77;;;;;;;19.60;56.53;97374.38;5064743;28;20494;-71
2021/08/24 10:57:45;;;;;;;6.23;4.87;;;;;;;19.74;56.18;97377.84;5072346;28;20995;-68
2021/08/24 11:00:27;;;;;;;5.87;5.17;;;;;;;18.96;59.08;97386.44;5072887;28;20525;-69
2021/08/24 11:03:25;;;;;;;12.10;4.33;;;;;;;19.13;58.17;97381.53;5045986;28;20935;-69
2021/08/24 11:05:57;;;;;;;4.80;4.40;;;;;;;19.28;57.72;97386.69;5063978;28;20425;-69
2021/08/24 11:08:23;;;;;;;5.43;4.93;;;;;;;19.48;56.79;97379.53;5072572;28;20807;-69
2021/08/24 11:10:55;;;;;;;5.37;4.87;;;;;;;19.25;57.88;97382.56;5067670;28;20421;-69
2021/08/24 11:13:30;;;;;;;5.30;4.80;;;;;;;19.81;56.16;97385.81;5070804;28;20201;-71
2021/08/24 11:16:18;;;;;;;5.13;4.40;;;;;;;19.24;57.78;97382.78;5064852;28;20424;-68
2021/08/24 11:18:48;;;;;;;5.43;4.33;;;;;;;19.36;57.22;97386.47;5066712;28;20844;-69
2021/08/24 11:21:20;;;;;;;4.97;4.47;;;;;;;19.58;57.07;97383.59;5072047;28;20431;-69
2021/08/24 11:24:07;;;;;;;6.20;5.10;;;;;;;19.99;56.31;97392.34;5072055;28;20490;-70
2021/08/24 11:26:37;;;;;;;10.73;5.07;;;;;;;20.04;55.65;97385.38;5066399;28;20451;-69
2021/08/24 11:29:21;;;;;;;5.10;4.60;;;;;;;20.01;56.59;97385.81;5072189;28;20535;-67
2021/08/24 11:31:53;;;;;;;5.93;4.33;;;;;;;19.74;56.32;97382.34;5057606;28;20405;-70
2021/08/24 11:34:25;;;;;;;5.70;4.33;;;;;;;20.17;54.96;97381.03;5082343;28;20437;-69
2021/08/24 11:36:55;;;;;;;5.70;4.00;;;;;;;20.53;54.09;97379.69;5093196;28;20488;-71
2021/08/24 11:39:35;;;;;;;4.87;4.20;;;;;;;20.32;55.22;97381.63;5091334;28;20502;-69
2021/08/24 11:42:02;;;;;;;4.60;4.17;;;;;;;19.90;55.85;97387.25;5083147;28;20515;-70
2021/08/24 11:44:50;;;;;;;5.57;3.60;;;;;;;20.49;54.87;97391.78;5077213;28;20460;-68
2021/08/24 11:47:20;;;;;;;4.50;3.20;;;;;;;20.54;54.08;97392.00;5072047;28;20425;-68